sensor_id;sensor_type;location;lat;lon;timestamp;P1;durP1;ratioP1;P2;durP2;ratioP2
39308;SDS011;26019;47.510;19.122;2023-06-01T00:03:40;12.93;;;6.53;;
39308;SDS011;26019;47.510;19.122;2023-06-01T00:13:43;14.33;;;6.77;;
39308;SDS011;26019;47.510;19.122;2023-06-01T00:23:48;11.60;;;6.32;;
39308;SDS011;26019;47.510;19.122;2023-06-01T00:33:50;10.88;;;6.50;;
39308;SDS011;26019;47.510;19.122;2023-06-01T00:43:53;11.63;;;6.45;;
39308;SDS011;26019;47.510;19.122;2023-06-01T00:53:55;12.97;;;6.33;;
39308;SDS011;26019;47.510;19.122;2023-06-01T01:03:58;11.50;;;7.07;;
39308;SDS011;26019;47.510;19.122;2023-06-01T01:14:20;13.48;;;6.72;;
39308;SDS011;26019;47.510;19.122;2023-06-01T01:35:02;14.68;;;6.63;;
39308;SDS011;26019;47.510;19.122;2023-06-01T01:45:13;8.48;;;5.70;;
39308;SDS011;26019;47.510;19.122;2023-06-01T01:55:17;8.52;;;6.00;;
39308;SDS011;26019;47.510;19.122;2023-06-01T02:05:20;14.65;;;7.53;;
39308;SDS011;26019;47.510;19.122;2023-06-01T02:15:23;11.73;;;5.88;;
39308;SDS011;26019;47.510;19.122;2023-06-01T02:25:26;9.25;;;6.32;;
39308;SDS011;26019;47.510;19.122;2023-06-01T02:35:28;7.97;;;6.37;;
39308;SDS011;26019;47.510;19.122;2023-06-01T02:45:30;7.78;;;5.68;;
39308;SDS011;26019;47.510;19.122;2023-06-01T02:55:31;11.80;;;6.18;;
39308;SDS011;26019;47.510;19.122;2023-06-01T03:05:34;8.37;;;6.03;;
39308;SDS011;26019;47.510;19.122;2023-06-01T03:15:37;12.52;;;7.38;;
39308;SDS011;26019;47.510;19.122;2023-06-01T03:25:39;11.07;;;6.67;;
39308;SDS011;26019;47.510;19.122;2023-06-01T03:35:40;10.30;;;6.93;;
39308;SDS011;26019;47.510;19.122;2023-06-01T03:45:42;13.63;;;7.15;;
39308;SDS011;26019;47.510;19.122;2023-06-01T03:55:44;11.88;;;6.40;;
39308;SDS011;26019;47.510;19.122;2023-06-01T04:05:46;13.10;;;6.13;;
39308;SDS011;26019;47.510;19.122;2023-06-01T04:15:51;10.30;;;6.28;;
39308;SDS011;26019;47.510;19.122;2023-06-01T04:25:53;15.67;;;5.80;;
39308;SDS011;26019;47.510;19.122;2023-06-01T04:35:56;13.25;;;4.93;;
39308;SDS011;26019;47.510;19.122;2023-06-01T04:45:58;8.57;;;5.60;;
39308;SDS011;26019;47.510;19.122;2023-06-01T04:56:07;9.02;;;5.35;;
39308;SDS011;26019;47.510;19.122;2023-06-01T05:06:09;8.52;;;4.30;;
39308;SDS011;26019;47.510;19.122;2023-06-01T05:16:12;7.30;;;4.40;;
39308;SDS011;26019;47.510;19.122;2023-06-01T05:26:14;11.27;;;5.60;;
39308;SDS011;26019;47.510;19.122;2023-06-01T05:46:21;9.93;;;4.13;;
39308;SDS011;26019;47.510;19.122;2023-06-01T05:56:23;12.32;;;4.35;;
39308;SDS011;26019;47.510;19.122;2023-06-01T06:06:27;7.45;;;4.47;;
39308;SDS011;26019;47.510;19.122;2023-06-01T06:26:31;7.80;;;3.23;;
39308;SDS011;26019;47.510;19.122;2023-06-01T06:36:34;11.35;;;3.28;;
39308;SDS011;26019;47.510;19.122;2023-06-01T06:46:36;7.55;;;2.72;;
39308;SDS011;26019;47.510;19.122;2023-06-01T06:56:37;5.70;;;2.60;;
39308;SDS011;26019;47.510;19.122;2023-06-01T07:06:40;7.38;;;3.08;;
39308;SDS011;26019;47.510;19.122;2023-06-01T07:16:43;9.88;;;2.50;;
39308;SDS011;26019;47.510;19.122;2023-06-01T07:26:45;4.97;;;2.20;;
39308;SDS011;26019;47.510;19.122;2023-06-01T07:36:48;7.80;;;2.80;;
39308;SDS011;26019;47.510;19.122;2023-06-01T07:46:51;4.88;;;2.33;;
39308;SDS011;26019;47.510;19.122;2023-06-01T07:56:53;5.20;;;2.60;;
39308;SDS011;26019;47.510;19.122;2023-06-01T08:06:55;6.05;;;2.33;;
39308;SDS011;26019;47.510;19.122;2023-06-01T08:16:57;6.30;;;3.00;;
39308;SDS011;26019;47.510;19.122;2023-06-01T08:26:59;7.15;;;3.13;;
39308;SDS011;26019;47.510;19.122;2023-06-01T08:37:03;5.18;;;3.13;;
39308;SDS011;26019;47.510;19.122;2023-06-01T08:47:05;9.50;;;2.67;;
39308;SDS011;26019;47.510;19.122;2023-06-01T08:57:07;4.22;;;2.50;;
39308;SDS011;26019;47.510;19.122;2023-06-01T09:07:09;11.45;;;3.10;;
39308;SDS011;26019;47.510;19.122;2023-06-01T09:17:14;4.22;;;2.70;;
39308;SDS011;26019;47.510;19.122;2023-06-01T09:27:23;9.77;;;3.03;;
39308;SDS011;26019;47.510;19.122;2023-06-01T09:37:25;7.55;;;3.08;;
39308;SDS011;26019;47.510;19.122;2023-06-01T09:47:31;10.10;;;3.10;;
39308;SDS011;26019;47.510;19.122;2023-06-01T09:57:34;6.28;;;2.90;;
39308;SDS011;26019;47.510;19.122;2023-06-01T10:07:36;10.15;;;3.15;;
39308;SDS011;26019;47.510;19.122;2023-06-01T10:17:40;8.20;;;3.10;;
39308;SDS011;26019;47.510;19.122;2023-06-01T10:27:58;7.90;;;3.20;;
39308;SDS011;26019;47.510;19.122;2023-06-01T10:38:26;4.25;;;3.30;;
39308;SDS011;26019;47.510;19.122;2023-06-01T11:09:19;7.25;;;3.30;;
39308;SDS011;26019;47.510;19.122;2023-06-01T11:29:26;10.65;;;3.35;;
39308;SDS011;26019;47.510;19.122;2023-06-01T11:39:28;5.30;;;3.33;;
39308;SDS011;26019;47.510;19.122;2023-06-01T11:49:39;7.05;;;3.13;;
39308;SDS011;26019;47.510;19.122;2023-06-01T11:59:43;9.40;;;3.90;;
39308;SDS011;26019;47.510;19.122;2023-06-01T12:09:46;6.85;;;3.35;;
39308;SDS011;26019;47.510;19.122;2023-06-01T12:19:49;5.07;;;3.55;;
39308;SDS011;26019;47.510;19.122;2023-06-01T12:29:51;5.82;;;3.72;;
39308;SDS011;26019;47.510;19.122;2023-06-01T12:39:54;8.85;;;3.70;;
39308;SDS011;26019;47.510;19.122;2023-06-01T12:50:05;5.75;;;3.45;;
39308;SDS011;26019;47.510;19.122;2023-06-01T13:00:11;5.28;;;3.63;;
39308;SDS011;26019;47.510;19.122;2023-06-01T13:10:14;4.53;;;3.92;;
39308;SDS011;26019;47.510;19.122;2023-06-01T13:20:15;5.60;;;3.28;;
39308;SDS011;26019;47.510;19.122;2023-06-01T13:30:18;11.25;;;3.67;;
39308;SDS011;26019;47.510;19.122;2023-06-01T13:40:20;8.43;;;3.88;;
39308;SDS011;26019;47.510;19.122;2023-06-01T13:50:25;4.77;;;3.40;;
39308;SDS011;26019;47.510;19.122;2023-06-01T14:10:35;10.27;;;4.10;;
39308;SDS011;26019;47.510;19.122;2023-06-01T14:20:37;6.77;;;3.17;;
39308;SDS011;26019;47.510;19.122;2023-06-01T14:30:40;5.95;;;3.33;;
39308;SDS011;26019;47.510;19.122;2023-06-01T14:40:42;5.95;;;3.45;;
39308;SDS011;26019;47.510;19.122;2023-06-01T14:50:44;6.68;;;3.83;;
39308;SDS011;26019;47.510;19.122;2023-06-01T15:00:47;6.72;;;3.55;;
39308;SDS011;26019;47.510;19.122;2023-06-01T15:10:52;7.75;;;3.83;;
39308;SDS011;26019;47.510;19.122;2023-06-01T15:20:55;7.07;;;4.07;;
39308;SDS011;26019;47.510;19.122;2023-06-01T15:30:58;6.35;;;3.58;;
39308;SDS011;26019;47.510;19.122;2023-06-01T15:41:01;8.35;;;3.92;;
39308;SDS011;26019;47.510;19.122;2023-06-01T15:51:05;5.90;;;3.80;;
39308;SDS011;26019;47.510;19.122;2023-06-01T16:01:08;5.40;;;4.03;;
39308;SDS011;26019;47.510;19.122;2023-06-01T16:11:24;12.52;;;6.28;;
39308;SDS011;26019;47.510;19.122;2023-06-01T16:21:26;11.77;;;4.68;;
39308;SDS011;26019;47.510;19.122;2023-06-01T16:31:31;10.50;;;5.43;;
39308;SDS011;26019;47.510;19.122;2023-06-01T16:41:37;8.80;;;4.93;;
39308;SDS011;26019;47.510;19.122;2023-06-01T16:51:39;7.75;;;4.28;;
39308;SDS011;26019;47.510;19.122;2023-06-01T17:01:44;8.57;;;3.80;;
39308;SDS011;26019;47.510;19.122;2023-06-01T17:11:55;7.03;;;3.97;;
39308;SDS011;26019;47.510;19.122;2023-06-01T17:21:59;4.45;;;3.70;;
39308;SDS011;26019;47.510;19.122;2023-06-01T17:32:03;10.43;;;4.60;;
39308;SDS011;26019;47.510;19.122;2023-06-01T17:42:06;9.18;;;5.55;;
39308;SDS011;26019;47.510;19.122;2023-06-01T17:52:08;7.75;;;4.95;;
39308;SDS011;26019;47.510;19.122;2023-06-01T18:02:11;12.40;;;5.25;;
39308;SDS011;26019;47.510;19.122;2023-06-01T18:12:16;11.77;;;5.55;;
39308;SDS011;26019;47.510;19.122;2023-06-01T18:22:18;10.82;;;5.88;;
39308;SDS011;26019;47.510;19.122;2023-06-01T18:32:20;8.57;;;4.63;;
39308;SDS011;26019;47.510;19.122;2023-06-01T18:42:22;9.20;;;5.05;;
39308;SDS011;26019;47.510;19.122;2023-06-01T18:52:24;13.48;;;5.55;;
39308;SDS011;26019;47.510;19.122;2023-06-01T19:02:26;12.73;;;5.82;;
39308;SDS011;26019;47.510;19.122;2023-06-01T19:12:28;13.38;;;6.45;;
39308;SDS011;26019;47.510;19.122;2023-06-01T19:22:30;8.57;;;5.53;;
39308;SDS011;26019;47.510;19.122;2023-06-01T19:32:33;12.38;;;6.10;;
39308;SDS011;26019;47.510;19.122;2023-06-01T19:42:35;12.48;;;6.50;;
39308;SDS011;26019;47.510;19.122;2023-06-01T19:52:41;17.40;;;7.45;;
39308;SDS011;26019;47.510;19.122;2023-06-01T20:12:58;26.23;;;10.52;;
39308;SDS011;26019;47.510;19.122;2023-06-01T20:23:11;13.77;;;8.02;;
39308;SDS011;26019;47.510;19.122;2023-06-01T20:33:18;16.17;;;7.28;;
39308;SDS011;26019;47.510;19.122;2023-06-01T20:43:28;12.45;;;7.25;;
39308;SDS011;26019;47.510;19.122;2023-06-01T20:53:30;14.52;;;7.20;;
39308;SDS011;26019;47.510;19.122;2023-06-01T21:03:32;13.32;;;6.40;;
39308;SDS011;26019;47.510;19.122;2023-06-01T21:13:34;15.13;;;7.68;;
39308;SDS011;26019;47.510;19.122;2023-06-01T21:23:35;13.07;;;7.13;;
39308;SDS011;26019;47.510;19.122;2023-06-01T21:33:38;17.33;;;7.22;;
39308;SDS011;26019;47.510;19.122;2023-06-01T21:43:40;11.18;;;6.95;;
39308;SDS011;26019;47.510;19.122;2023-06-01T22:13:47;12.83;;;7.30;;
39308;SDS011;26019;47.510;19.122;2023-06-01T22:23:53;13.82;;;7.47;;
39308;SDS011;26019;47.510;19.122;2023-06-01T22:33:57;22.15;;;9.48;;
39308;SDS011;26019;47.510;19.122;2023-06-01T22:43:59;11.82;;;7.25;;
39308;SDS011;26019;47.510;19.122;2023-06-01T22:54:01;18.60;;;8.23;;
39308;SDS011;26019;47.510;19.122;2023-06-01T23:04:06;13.75;;;7.88;;
39308;SDS011;26019;47.510;19.122;2023-06-01T23:14:10;9.93;;;7.25;;
39308;SDS011;26019;47.510;19.122;2023-06-01T23:24:15;17.67;;;7.63;;
39308;SDS011;26019;47.510;19.122;2023-06-01T23:34:18;11.77;;;8.05;;
39308;SDS011;26019;47.510;19.122;2023-06-01T23:54:22;12.20;;;7.50;;
